Aviation Digital Data Service (ADDS)

Output produced by METARs form (1315 UTC 17 October 2017)
found at http://aviationweather.gov/adds/metars/
 
KERI 171126Z 1712/1812 19010KT P6SM SCT060 
     FM171500 22014G22KT P6SM SKC 
     FM180000 21010KT P6SM SKC